sensor_id;sensor_type;location;lat;lon;timestamp;P1;durP1;ratioP1;P2;durP2;ratioP2
59938;SDS011;45801;51.810;19.444;2024-03-06T00:00:26;49.40;;;37.90;;
59938;SDS011;45801;51.810;19.444;2024-03-06T00:03:13;50.60;;;36.90;;
59938;SDS011;45801;51.810;19.444;2024-03-06T00:05:40;50.50;;;36.10;;
59938;SDS011;45801;51.810;19.444;2024-03-06T00:08:06;51.00;;;36.50;;
59938;SDS011;45801;51.810;19.444;2024-03-06T00:10:33;50.10;;;36.00;;
59938;SDS011;45801;51.810;19.444;2024-03-06T00:12:59;53.80;;;36.30;;
59938;SDS011;45801;51.810;19.444;2024-03-06T00:15:26;45.90;;;34.00;;
59938;SDS011;45801;51.810;19.444;2024-03-06T00:17:53;53.10;;;36.00;;
59938;SDS011;45801;51.810;19.444;2024-03-06T00:20:20;46.60;;;31.90;;
59938;SDS011;45801;51.810;19.444;2024-03-06T00:22:46;50.00;;;34.20;;
59938;SDS011;45801;51.810;19.444;2024-03-06T00:25:13;48.10;;;33.40;;
59938;SDS011;45801;51.810;19.444;2024-03-06T00:27:40;47.90;;;32.70;;
59938;SDS011;45801;51.810;19.444;2024-03-06T00:30:07;45.00;;;32.40;;
59938;SDS011;45801;51.810;19.444;2024-03-06T00:32:34;42.90;;;31.40;;
59938;SDS011;45801;51.810;19.444;2024-03-06T00:35:00;41.80;;;30.00;;
59938;SDS011;45801;51.810;19.444;2024-03-06T00:37:27;40.40;;;30.00;;
59938;SDS011;45801;51.810;19.444;2024-03-06T00:39:53;42.30;;;29.70;;
59938;SDS011;45801;51.810;19.444;2024-03-06T00:42:20;41.50;;;30.30;;
59938;SDS011;45801;51.810;19.444;2024-03-06T00:44:47;42.50;;;29.80;;
59938;SDS011;45801;51.810;19.444;2024-03-06T00:47:13;41.10;;;28.80;;
59938;SDS011;45801;51.810;19.444;2024-03-06T00:49:40;36.10;;;28.20;;
59938;SDS011;45801;51.810;19.444;2024-03-06T00:52:08;41.80;;;29.50;;
59938;SDS011;45801;51.810;19.444;2024-03-06T00:54:35;41.60;;;28.30;;
59938;SDS011;45801;51.810;19.444;2024-03-06T00:57:02;39.70;;;28.10;;
59938;SDS011;45801;51.810;19.444;2024-03-06T00:59:28;39.80;;;27.40;;
59938;SDS011;45801;51.810;19.444;2024-03-06T01:01:55;38.90;;;27.50;;
59938;SDS011;45801;51.810;19.444;2024-03-06T01:04:24;39.00;;;28.40;;
59938;SDS011;45801;51.810;19.444;2024-03-06T01:06:51;39.90;;;27.70;;
59938;SDS011;45801;51.810;19.444;2024-03-06T01:09:18;41.60;;;30.00;;
59938;SDS011;45801;51.810;19.444;2024-03-06T01:11:44;42.00;;;28.70;;
59938;SDS011;45801;51.810;19.444;2024-03-06T01:14:13;44.40;;;30.20;;
59938;SDS011;45801;51.810;19.444;2024-03-06T01:16:39;43.50;;;29.60;;
59938;SDS011;45801;51.810;19.444;2024-03-06T01:19:06;42.40;;;28.60;;
59938;SDS011;45801;51.810;19.444;2024-03-06T01:21:32;46.10;;;29.40;;
59938;SDS011;45801;51.810;19.444;2024-03-06T01:24:01;44.70;;;29.10;;
59938;SDS011;45801;51.810;19.444;2024-03-06T01:26:27;41.80;;;29.90;;
59938;SDS011;45801;51.810;19.444;2024-03-06T01:28:54;42.30;;;28.90;;
59938;SDS011;45801;51.810;19.444;2024-03-06T01:31:20;42.70;;;28.60;;
59938;SDS011;45801;51.810;19.444;2024-03-06T01:33:47;38.90;;;27.70;;
59938;SDS011;45801;51.810;19.444;2024-03-06T01:36:14;37.80;;;25.90;;
59938;SDS011;45801;51.810;19.444;2024-03-06T01:38:41;40.50;;;27.40;;
59938;SDS011;45801;51.810;19.444;2024-03-06T01:41:07;41.80;;;27.80;;
59938;SDS011;45801;51.810;19.444;2024-03-06T01:43:37;38.70;;;26.20;;
59938;SDS011;45801;51.810;19.444;2024-03-06T01:46:07;37.30;;;26.80;;
59938;SDS011;45801;51.810;19.444;2024-03-06T01:48:33;38.50;;;25.50;;
59938;SDS011;45801;51.810;19.444;2024-03-06T01:51:01;36.20;;;25.90;;
59938;SDS011;45801;51.810;19.444;2024-03-06T01:53:31;39.80;;;24.60;;
59938;SDS011;45801;51.810;19.444;2024-03-06T01:55:59;38.20;;;26.30;;
59938;SDS011;45801;51.810;19.444;2024-03-06T01:58:27;36.90;;;26.60;;
59938;SDS011;45801;51.810;19.444;2024-03-06T02:00:54;34.30;;;23.20;;
59938;SDS011;45801;51.810;19.444;2024-03-06T02:03:21;35.00;;;23.60;;
59938;SDS011;45801;51.810;19.444;2024-03-06T02:05:48;34.70;;;24.40;;
59938;SDS011;45801;51.810;19.444;2024-03-06T02:08:16;36.00;;;23.60;;
59938;SDS011;45801;51.810;19.444;2024-03-06T02:10:44;34.20;;;23.50;;
59938;SDS011;45801;51.810;19.444;2024-03-06T02:13:12;34.70;;;23.00;;
59938;SDS011;45801;51.810;19.444;2024-03-06T02:15:40;34.60;;;23.50;;
59938;SDS011;45801;51.810;19.444;2024-03-06T02:18:06;35.00;;;22.80;;
59938;SDS011;45801;51.810;19.444;2024-03-06T02:20:34;37.00;;;24.40;;
59938;SDS011;45801;51.810;19.444;2024-03-06T02:23:01;31.70;;;22.50;;
59938;SDS011;45801;51.810;19.444;2024-03-06T02:25:28;30.80;;;22.50;;
59938;SDS011;45801;51.810;19.444;2024-03-06T02:27:55;31.50;;;21.90;;
59938;SDS011;45801;51.810;19.444;2024-03-06T02:30:21;30.30;;;22.10;;
59938;SDS011;45801;51.810;19.444;2024-03-06T02:32:48;32.90;;;22.60;;
59938;SDS011;45801;51.810;19.444;2024-03-06T02:35:15;29.80;;;21.60;;
59938;SDS011;45801;51.810;19.444;2024-03-06T02:37:44;32.60;;;21.20;;
59938;SDS011;45801;51.810;19.444;2024-03-06T02:40:11;30.80;;;20.20;;
59938;SDS011;45801;51.810;19.444;2024-03-06T02:42:38;28.70;;;20.50;;
59938;SDS011;45801;51.810;19.444;2024-03-06T02:45:05;28.20;;;19.50;;
59938;SDS011;45801;51.810;19.444;2024-03-06T02:47:33;30.00;;;19.80;;
59938;SDS011;45801;51.810;19.444;2024-03-06T02:50:00;30.50;;;19.80;;
59938;SDS011;45801;51.810;19.444;2024-03-06T02:52:27;31.40;;;20.00;;
59938;SDS011;45801;51.810;19.444;2024-03-06T02:54:53;28.90;;;19.90;;
59938;SDS011;45801;51.810;19.444;2024-03-06T02:57:20;28.50;;;20.10;;
59938;SDS011;45801;51.810;19.444;2024-03-06T02:59:46;27.80;;;19.50;;
59938;SDS011;45801;51.810;19.444;2024-03-06T03:02:13;28.40;;;18.90;;
59938;SDS011;45801;51.810;19.444;2024-03-06T03:04:40;28.30;;;18.60;;
59938;SDS011;45801;51.810;19.444;2024-03-06T03:07:06;25.70;;;18.90;;
59938;SDS011;45801;51.810;19.444;2024-03-06T03:09:33;28.00;;;19.50;;
59938;SDS011;45801;51.810;19.444;2024-03-06T03:12:02;26.60;;;19.20;;
59938;SDS011;45801;51.810;19.444;2024-03-06T03:14:28;29.40;;;19.20;;
59938;SDS011;45801;51.810;19.444;2024-03-06T03:16:55;29.50;;;18.60;;
59938;SDS011;45801;51.810;19.444;2024-03-06T03:19:21;27.70;;;17.60;;
59938;SDS011;45801;51.810;19.444;2024-03-06T03:21:48;27.20;;;18.40;;
59938;SDS011;45801;51.810;19.444;2024-03-06T03:24:14;27.50;;;18.80;;
59938;SDS011;45801;51.810;19.444;2024-03-06T03:26:41;25.90;;;18.00;;
59938;SDS011;45801;51.810;19.444;2024-03-06T03:29:08;27.30;;;18.00;;
59938;SDS011;45801;51.810;19.444;2024-03-06T03:31:35;25.30;;;17.80;;
59938;SDS011;45801;51.810;19.444;2024-03-06T03:34:05;26.30;;;17.80;;
59938;SDS011;45801;51.810;19.444;2024-03-06T03:36:33;25.40;;;17.40;;
59938;SDS011;45801;51.810;19.444;2024-03-06T03:38:59;25.60;;;18.70;;
59938;SDS011;45801;51.810;19.444;2024-03-06T03:41:26;24.30;;;17.80;;
59938;SDS011;45801;51.810;19.444;2024-03-06T03:43:53;26.50;;;17.70;;
59938;SDS011;45801;51.810;19.444;2024-03-06T03:46:19;25.00;;;17.60;;
59938;SDS011;45801;51.810;19.444;2024-03-06T03:48:46;26.80;;;17.40;;
59938;SDS011;45801;51.810;19.444;2024-03-06T03:51:12;22.60;;;16.70;;
59938;SDS011;45801;51.810;19.444;2024-03-06T03:53:41;26.00;;;19.20;;
59938;SDS011;45801;51.810;19.444;2024-03-06T03:56:08;23.70;;;15.80;;
59938;SDS011;45801;51.810;19.444;2024-03-06T03:58:34;23.60;;;16.70;;
59938;SDS011;45801;51.810;19.444;2024-03-06T04:01:01;24.00;;;17.70;;
59938;SDS011;45801;51.810;19.444;2024-03-06T04:03:28;28.20;;;18.50;;
59938;SDS011;45801;51.810;19.444;2024-03-06T04:05:54;25.00;;;19.20;;
59938;SDS011;45801;51.810;19.444;2024-03-06T04:08:21;27.70;;;18.50;;
59938;SDS011;45801;51.810;19.444;2024-03-06T04:10:47;26.20;;;18.60;;
59938;SDS011;45801;51.810;19.444;2024-03-06T04:13:15;23.50;;;17.80;;
59938;SDS011;45801;51.810;19.444;2024-03-06T04:15:42;25.40;;;17.40;;
59938;SDS011;45801;51.810;19.444;2024-03-06T04:18:09;25.30;;;16.80;;
59938;SDS011;45801;51.810;19.444;2024-03-06T04:20:35;26.30;;;18.40;;
59938;SDS011;45801;51.810;19.444;2024-03-06T04:23:02;25.80;;;17.20;;
59938;SDS011;45801;51.810;19.444;2024-03-06T04:25:28;24.90;;;17.50;;
59938;SDS011;45801;51.810;19.444;2024-03-06T04:27:55;26.10;;;18.20;;
59938;SDS011;45801;51.810;19.444;2024-03-06T04:30:22;22.70;;;17.00;;
59938;SDS011;45801;51.810;19.444;2024-03-06T04:32:49;24.60;;;18.60;;
59938;SDS011;45801;51.810;19.444;2024-03-06T04:35:15;25.30;;;17.50;;
59938;SDS011;45801;51.810;19.444;2024-03-06T04:37:42;28.90;;;19.00;;
59938;SDS011;45801;51.810;19.444;2024-03-06T04:40:10;26.00;;;18.10;;
59938;SDS011;45801;51.810;19.444;2024-03-06T04:42:36;26.30;;;17.10;;
59938;SDS011;45801;51.810;19.444;2024-03-06T04:45:08;26.10;;;17.80;;
59938;SDS011;45801;51.810;19.444;2024-03-06T04:47:37;21.90;;;15.60;;
59938;SDS011;45801;51.810;19.444;2024-03-06T04:50:07;24.50;;;16.90;;
59938;SDS011;45801;51.810;19.444;2024-03-06T04:52:35;23.30;;;16.60;;
59938;SDS011;45801;51.810;19.444;2024-03-06T04:55:05;24.40;;;17.60;;
59938;SDS011;45801;51.810;19.444;2024-03-06T04:57:34;25.00;;;16.90;;
59938;SDS011;45801;51.810;19.444;2024-03-06T05:00:01;24.20;;;16.80;;
59938;SDS011;45801;51.810;19.444;2024-03-06T05:02:32;24.30;;;16.60;;
59938;SDS011;45801;51.810;19.444;2024-03-06T05:05:04;23.10;;;16.20;;
59938;SDS011;45801;51.810;19.444;2024-03-06T05:07:31;25.10;;;16.90;;
59938;SDS011;45801;51.810;19.444;2024-03-06T05:09:58;25.60;;;17.20;;
59938;SDS011;45801;51.810;19.444;2024-03-06T05:12:25;25.60;;;17.20;;
59938;SDS011;45801;51.810;19.444;2024-03-06T05:14:53;23.90;;;16.60;;
59938;SDS011;45801;51.810;19.444;2024-03-06T05:17:20;22.90;;;16.20;;
59938;SDS011;45801;51.810;19.444;2024-03-06T05:19:47;24.20;;;17.00;;
59938;SDS011;45801;51.810;19.444;2024-03-06T05:22:15;22.30;;;16.60;;
59938;SDS011;45801;51.810;19.444;2024-03-06T05:24:43;23.90;;;16.60;;
59938;SDS011;45801;51.810;19.444;2024-03-06T05:27:10;25.50;;;16.80;;
59938;SDS011;45801;51.810;19.444;2024-03-06T05:29:39;23.60;;;16.50;;
59938;SDS011;45801;51.810;19.444;2024-03-06T05:32:06;24.70;;;17.60;;
59938;SDS011;45801;51.810;19.444;2024-03-06T05:34:35;23.50;;;16.80;;
59938;SDS011;45801;51.810;19.444;2024-03-06T05:37:02;25.30;;;17.50;;
59938;SDS011;45801;51.810;19.444;2024-03-06T05:39:32;23.40;;;16.40;;
59938;SDS011;45801;51.810;19.444;2024-03-06T05:42:02;24.20;;;16.80;;
59938;SDS011;45801;51.810;19.444;2024-03-06T05:46:59;23.70;;;15.70;;
59938;SDS011;45801;51.810;19.444;2024-03-06T05:49:27;27.30;;;18.40;;
59938;SDS011;45801;51.810;19.444;2024-03-06T05:51:54;28.40;;;18.50;;
59938;SDS011;45801;51.810;19.444;2024-03-06T05:54:21;26.00;;;16.50;;
59938;SDS011;45801;51.810;19.444;2024-03-06T05:56:48;26.90;;;18.40;;
59938;SDS011;45801;51.810;19.444;2024-03-06T05:59:16;25.60;;;17.80;;
59938;SDS011;45801;51.810;19.444;2024-03-06T06:01:42;29.40;;;20.40;;
59938;SDS011;45801;51.810;19.444;2024-03-06T06:04:10;28.60;;;20.10;;
59938;SDS011;45801;51.810;19.444;2024-03-06T06:06:39;29.30;;;20.50;;
59938;SDS011;45801;51.810;19.444;2024-03-06T06:09:06;29.60;;;20.50;;
59938;SDS011;45801;51.810;19.444;2024-03-06T06:11:33;31.50;;;21.10;;
59938;SDS011;45801;51.810;19.444;2024-03-06T06:14:00;29.60;;;20.60;;
59938;SDS011;45801;51.810;19.444;2024-03-06T06:16:26;31.60;;;21.40;;
59938;SDS011;45801;51.810;19.444;2024-03-06T06:18:53;29.60;;;18.90;;
59938;SDS011;45801;51.810;19.444;2024-03-06T06:21:19;32.30;;;22.60;;
59938;SDS011;45801;51.810;19.444;2024-03-06T06:23:46;31.80;;;21.60;;
59938;SDS011;45801;51.810;19.444;2024-03-06T06:26:13;31.80;;;21.50;;
59938;SDS011;45801;51.810;19.444;2024-03-06T06:28:40;30.70;;;20.90;;
59938;SDS011;45801;51.810;19.444;2024-03-06T06:31:08;30.00;;;22.00;;
59938;SDS011;45801;51.810;19.444;2024-03-06T06:33:35;31.50;;;21.10;;
59938;SDS011;45801;51.810;19.444;2024-03-06T06:36:01;31.20;;;21.20;;
59938;SDS011;45801;51.810;19.444;2024-03-06T06:38:28;31.50;;;21.30;;
59938;SDS011;45801;51.810;19.444;2024-03-06T06:40:55;34.50;;;22.30;;
59938;SDS011;45801;51.810;19.444;2024-03-06T06:43:22;32.60;;;23.30;;
59938;SDS011;45801;51.810;19.444;2024-03-06T06:45:49;35.40;;;23.30;;
59938;SDS011;45801;51.810;19.444;2024-03-06T06:48:15;36.10;;;23.10;;
59938;SDS011;45801;51.810;19.444;2024-03-06T06:50:42;38.00;;;24.00;;
59938;SDS011;45801;51.810;19.444;2024-03-06T06:53:08;36.40;;;22.80;;
59938;SDS011;45801;51.810;19.444;2024-03-06T06:55:35;37.30;;;24.00;;
59938;SDS011;45801;51.810;19.444;2024-03-06T06:58:02;36.40;;;24.70;;
59938;SDS011;45801;51.810;19.444;2024-03-06T07:00:29;38.60;;;23.50;;
59938;SDS011;45801;51.810;19.444;2024-03-06T07:02:56;35.30;;;23.60;;
59938;SDS011;45801;51.810;19.444;2024-03-06T07:05:24;39.40;;;25.60;;
59938;SDS011;45801;51.810;19.444;2024-03-06T07:07:52;36.40;;;22.90;;
59938;SDS011;45801;51.810;19.444;2024-03-06T07:10:19;33.70;;;21.00;;
59938;SDS011;45801;51.810;19.444;2024-03-06T07:12:46;35.50;;;24.10;;
59938;SDS011;45801;51.810;19.444;2024-03-06T07:15:12;35.90;;;23.40;;
59938;SDS011;45801;51.810;19.444;2024-03-06T07:17:39;34.90;;;21.30;;
59938;SDS011;45801;51.810;19.444;2024-03-06T07:20:06;34.30;;;22.60;;
59938;SDS011;45801;51.810;19.444;2024-03-06T07:22:34;34.40;;;23.60;;
59938;SDS011;45801;51.810;19.444;2024-03-06T07:25:01;35.70;;;24.20;;
59938;SDS011;45801;51.810;19.444;2024-03-06T07:27:28;34.40;;;22.00;;
59938;SDS011;45801;51.810;19.444;2024-03-06T07:29:55;33.10;;;21.80;;
59938;SDS011;45801;51.810;19.444;2024-03-06T07:32:21;34.30;;;22.30;;
59938;SDS011;45801;51.810;19.444;2024-03-06T07:34:48;33.50;;;23.00;;
59938;SDS011;45801;51.810;19.444;2024-03-06T07:37:14;30.20;;;20.70;;
59938;SDS011;45801;51.810;19.444;2024-03-06T07:39:43;31.90;;;21.10;;
59938;SDS011;45801;51.810;19.444;2024-03-06T07:42:10;31.80;;;21.00;;
59938;SDS011;45801;51.810;19.444;2024-03-06T07:44:37;31.00;;;20.50;;
59938;SDS011;45801;51.810;19.444;2024-03-06T07:47:03;32.50;;;21.60;;
59938;SDS011;45801;51.810;19.444;2024-03-06T07:49:30;31.30;;;20.60;;
59938;SDS011;45801;51.810;19.444;2024-03-06T07:51:57;34.00;;;21.50;;
59938;SDS011;45801;51.810;19.444;2024-03-06T07:54:23;34.80;;;22.00;;
59938;SDS011;45801;51.810;19.444;2024-03-06T07:56:49;33.20;;;22.50;;
59938;SDS011;45801;51.810;19.444;2024-03-06T07:59:14;32.80;;;21.10;;
59938;SDS011;45801;51.810;19.444;2024-03-06T08:01:42;30.50;;;20.80;;
59938;SDS011;45801;51.810;19.444;2024-03-06T08:04:07;34.50;;;24.60;;
59938;SDS011;45801;51.810;19.444;2024-03-06T08:06:33;49.60;;;36.40;;
59938;SDS011;45801;51.810;19.444;2024-03-06T08:08:59;47.10;;;36.80;;
59938;SDS011;45801;51.810;19.444;2024-03-06T08:11:24;42.50;;;31.70;;
59938;SDS011;45801;51.810;19.444;2024-03-06T08:13:56;31.80;;;22.60;;
59938;SDS011;45801;51.810;19.444;2024-03-06T08:16:22;35.80;;;24.60;;
59938;SDS011;45801;51.810;19.444;2024-03-06T08:18:48;34.40;;;23.10;;
59938;SDS011;45801;51.810;19.444;2024-03-06T08:21:21;56.00;;;40.80;;
59938;SDS011;45801;51.810;19.444;2024-03-06T08:23:49;46.30;;;32.40;;
59938;SDS011;45801;51.810;19.444;2024-03-06T08:26:16;42.10;;;33.20;;
59938;SDS011;45801;51.810;19.444;2024-03-06T08:28:44;54.20;;;48.30;;
59938;SDS011;45801;51.810;19.444;2024-03-06T08:31:14;49.90;;;42.80;;
59938;SDS011;45801;51.810;19.444;2024-03-06T08:33:39;37.70;;;28.50;;
59938;SDS011;45801;51.810;19.444;2024-03-06T08:36:05;35.80;;;25.20;;
59938;SDS011;45801;51.810;19.444;2024-03-06T08:38:31;33.90;;;23.90;;
59938;SDS011;45801;51.810;19.444;2024-03-06T08:40:56;43.40;;;32.60;;
59938;SDS011;45801;51.810;19.444;2024-03-06T08:43:22;35.20;;;27.20;;
59938;SDS011;45801;51.810;19.444;2024-03-06T08:45:47;36.00;;;28.70;;
59938;SDS011;45801;51.810;19.444;2024-03-06T08:48:13;31.30;;;24.10;;
59938;SDS011;45801;51.810;19.444;2024-03-06T08:50:39;26.60;;;18.60;;
59938;SDS011;45801;51.810;19.444;2024-03-06T08:53:04;32.90;;;26.50;;
59938;SDS011;45801;51.810;19.444;2024-03-06T08:55:30;23.90;;;16.60;;
59938;SDS011;45801;51.810;19.444;2024-03-06T08:57:56;26.10;;;17.50;;
59938;SDS011;45801;51.810;19.444;2024-03-06T09:00:21;25.50;;;16.80;;
59938;SDS011;45801;51.810;19.444;2024-03-06T09:02:47;28.90;;;22.40;;
59938;SDS011;45801;51.810;19.444;2024-03-06T09:05:12;36.70;;;31.00;;
59938;SDS011;45801;51.810;19.444;2024-03-06T09:07:39;32.10;;;26.50;;
59938;SDS011;45801;51.810;19.444;2024-03-06T09:10:08;30.60;;;23.60;;
59938;SDS011;45801;51.810;19.444;2024-03-06T09:12:35;25.80;;;18.70;;
59938;SDS011;45801;51.810;19.444;2024-03-06T09:15:01;29.90;;;23.90;;
59938;SDS011;45801;51.810;19.444;2024-03-06T09:17:27;24.30;;;18.50;;
59938;SDS011;45801;51.810;19.444;2024-03-06T09:19:53;24.00;;;17.20;;
59938;SDS011;45801;51.810;19.444;2024-03-06T09:22:19;23.20;;;17.00;;
59938;SDS011;45801;51.810;19.444;2024-03-06T09:24:46;25.60;;;18.70;;
59938;SDS011;45801;51.810;19.444;2024-03-06T09:27:14;23.70;;;16.70;;
59938;SDS011;45801;51.810;19.444;2024-03-06T09:29:40;24.00;;;16.20;;
59938;SDS011;45801;51.810;19.444;2024-03-06T09:32:06;25.20;;;17.30;;
59938;SDS011;45801;51.810;19.444;2024-03-06T09:34:32;25.00;;;17.60;;
59938;SDS011;45801;51.810;19.444;2024-03-06T09:36:57;26.90;;;18.10;;
59938;SDS011;45801;51.810;19.444;2024-03-06T09:39:23;25.50;;;17.40;;
59938;SDS011;45801;51.810;19.444;2024-03-06T09:41:51;29.30;;;19.40;;
59938;SDS011;45801;51.810;19.444;2024-03-06T09:44:18;26.00;;;18.80;;
59938;SDS011;45801;51.810;19.444;2024-03-06T09:46:46;29.90;;;19.60;;
59938;SDS011;45801;51.810;19.444;2024-03-06T09:49:17;30.90;;;21.10;;
59938;SDS011;45801;51.810;19.444;2024-03-06T09:51:45;32.30;;;22.30;;
59938;SDS011;45801;51.810;19.444;2024-03-06T09:54:12;29.10;;;20.40;;
59938;SDS011;45801;51.810;19.444;2024-03-06T09:56:42;30.70;;;21.20;;
59938;SDS011;45801;51.810;19.444;2024-03-06T09:59:09;34.40;;;22.40;;
59938;SDS011;45801;51.810;19.444;2024-03-06T10:01:37;33.60;;;22.70;;
59938;SDS011;45801;51.810;19.444;2024-03-06T10:04:19;32.70;;;23.00;;
59938;SDS011;45801;51.810;19.444;2024-03-06T10:06:53;40.70;;;25.00;;
59938;SDS011;45801;51.810;19.444;2024-03-06T10:09:22;35.50;;;23.90;;
59938;SDS011;45801;51.810;19.444;2024-03-06T10:11:48;36.20;;;24.20;;
59938;SDS011;45801;51.810;19.444;2024-03-06T10:14:14;38.70;;;24.90;;
59938;SDS011;45801;51.810;19.444;2024-03-06T10:16:53;34.40;;;22.80;;
59938;SDS011;45801;51.810;19.444;2024-03-06T10:19:24;32.20;;;22.00;;
59938;SDS011;45801;51.810;19.444;2024-03-06T10:21:53;32.50;;;23.00;;
59938;SDS011;45801;51.810;19.444;2024-03-06T10:24:19;31.10;;;21.60;;
59938;SDS011;45801;51.810;19.444;2024-03-06T10:26:47;34.80;;;23.30;;
59938;SDS011;45801;51.810;19.444;2024-03-06T10:29:16;32.80;;;23.20;;
59938;SDS011;45801;51.810;19.444;2024-03-06T10:31:47;37.90;;;24.20;;
59938;SDS011;45801;51.810;19.444;2024-03-06T10:34:20;35.10;;;23.50;;
59938;SDS011;45801;51.810;19.444;2024-03-06T10:36:57;36.20;;;23.70;;
59938;SDS011;45801;51.810;19.444;2024-03-06T10:39:24;37.10;;;23.70;;
59938;SDS011;45801;51.810;19.444;2024-03-06T10:41:54;40.40;;;25.40;;
59938;SDS011;45801;51.810;19.444;2024-03-06T10:44:25;39.10;;;26.00;;
59938;SDS011;45801;51.810;19.444;2024-03-06T10:46:58;36.30;;;25.80;;
59938;SDS011;45801;51.810;19.444;2024-03-06T10:52:02;38.60;;;24.70;;
59938;SDS011;45801;51.810;19.444;2024-03-06T10:54:33;38.10;;;26.30;;
59938;SDS011;45801;51.810;19.444;2024-03-06T10:57:00;37.20;;;24.20;;
59938;SDS011;45801;51.810;19.444;2024-03-06T10:59:28;36.60;;;25.10;;
59938;SDS011;45801;51.810;19.444;2024-03-06T11:01:55;38.90;;;24.50;;
59938;SDS011;45801;51.810;19.444;2024-03-06T11:04:25;42.00;;;25.60;;
59938;SDS011;45801;51.810;19.444;2024-03-06T11:06:57;40.60;;;25.60;;
59938;SDS011;45801;51.810;19.444;2024-03-06T11:09:25;38.00;;;25.10;;
59938;SDS011;45801;51.810;19.444;2024-03-06T11:11:52;41.50;;;27.20;;
59938;SDS011;45801;51.810;19.444;2024-03-06T11:14:22;41.00;;;26.20;;
59938;SDS011;45801;51.810;19.444;2024-03-06T11:17:23;43.90;;;26.60;;
59938;SDS011;45801;51.810;19.444;2024-03-06T11:28:21;40.90;;;27.50;;
59938;SDS011;45801;51.810;19.444;2024-03-06T11:30:59;41.80;;;27.70;;
59938;SDS011;45801;51.810;19.444;2024-03-06T11:33:36;53.10;;;33.00;;
59938;SDS011;45801;51.810;19.444;2024-03-06T11:38:56;42.30;;;28.00;;
59938;SDS011;45801;51.810;19.444;2024-03-06T11:44:09;44.60;;;30.20;;
59938;SDS011;45801;51.810;19.444;2024-03-06T11:46:45;45.30;;;28.70;;
59938;SDS011;45801;51.810;19.444;2024-03-06T11:49:17;46.10;;;29.50;;
59938;SDS011;45801;51.810;19.444;2024-03-06T11:51:57;37.40;;;24.90;;
59938;SDS011;45801;51.810;19.444;2024-03-06T11:54:26;38.70;;;25.00;;
59938;SDS011;45801;51.810;19.444;2024-03-06T11:56:54;40.20;;;27.10;;
59938;SDS011;45801;51.810;19.444;2024-03-06T11:59:27;38.50;;;25.30;;
59938;SDS011;45801;51.810;19.444;2024-03-06T12:01:58;38.40;;;26.20;;
59938;SDS011;45801;51.810;19.444;2024-03-06T12:04:28;43.90;;;28.00;;
59938;SDS011;45801;51.810;19.444;2024-03-06T12:06:58;39.10;;;27.60;;
59938;SDS011;45801;51.810;19.444;2024-03-06T12:09:34;42.40;;;29.30;;
59938;SDS011;45801;51.810;19.444;2024-03-06T12:12:02;37.30;;;26.60;;
59938;SDS011;45801;51.810;19.444;2024-03-06T12:14:29;37.40;;;27.40;;
59938;SDS011;45801;51.810;19.444;2024-03-06T12:19:21;35.00;;;24.30;;
59938;SDS011;45801;51.810;19.444;2024-03-06T12:21:47;35.00;;;25.80;;
59938;SDS011;45801;51.810;19.444;2024-03-06T12:24:15;36.60;;;26.70;;
59938;SDS011;45801;51.810;19.444;2024-03-06T12:26:41;37.40;;;27.00;;
59938;SDS011;45801;51.810;19.444;2024-03-06T12:29:07;37.40;;;26.30;;
59938;SDS011;45801;51.810;19.444;2024-03-06T12:31:35;35.30;;;25.90;;
59938;SDS011;45801;51.810;19.444;2024-03-06T12:34:03;35.60;;;26.20;;
59938;SDS011;45801;51.810;19.444;2024-03-06T12:36:29;36.50;;;23.40;;
59938;SDS011;45801;51.810;19.444;2024-03-06T12:38:58;37.30;;;24.10;;
59938;SDS011;45801;51.810;19.444;2024-03-06T12:41:25;37.70;;;24.90;;
59938;SDS011;45801;51.810;19.444;2024-03-06T12:43:52;37.50;;;24.80;;
59938;SDS011;45801;51.810;19.444;2024-03-06T12:46:18;37.40;;;24.90;;
59938;SDS011;45801;51.810;19.444;2024-03-06T12:48:45;34.70;;;25.40;;
59938;SDS011;45801;51.810;19.444;2024-03-06T12:51:10;37.10;;;24.40;;
59938;SDS011;45801;51.810;19.444;2024-03-06T12:53:36;34.90;;;23.70;;
59938;SDS011;45801;51.810;19.444;2024-03-06T12:56:02;38.00;;;25.00;;
59938;SDS011;45801;51.810;19.444;2024-03-06T12:58:27;32.50;;;22.00;;
59938;SDS011;45801;51.810;19.444;2024-03-06T13:00:53;31.10;;;21.60;;
59938;SDS011;45801;51.810;19.444;2024-03-06T13:03:20;30.80;;;20.60;;
59938;SDS011;45801;51.810;19.444;2024-03-06T13:05:49;30.00;;;21.50;;
59938;SDS011;45801;51.810;19.444;2024-03-06T13:08:14;32.20;;;21.20;;
59938;SDS011;45801;51.810;19.444;2024-03-06T13:10:41;33.40;;;23.80;;
59938;SDS011;45801;51.810;19.444;2024-03-06T13:13:07;30.00;;;19.80;;
59938;SDS011;45801;51.810;19.444;2024-03-06T13:15:33;36.40;;;21.90;;
59938;SDS011;45801;51.810;19.444;2024-03-06T13:18:05;33.50;;;21.60;;
59938;SDS011;45801;51.810;19.444;2024-03-06T13:20:31;32.00;;;22.40;;
59938;SDS011;45801;51.810;19.444;2024-03-06T13:22:58;28.20;;;17.30;;
59938;SDS011;45801;51.810;19.444;2024-03-06T13:25:24;34.20;;;22.50;;
59938;SDS011;45801;51.810;19.444;2024-03-06T13:27:50;30.40;;;20.20;;
59938;SDS011;45801;51.810;19.444;2024-03-06T13:30:19;30.10;;;20.10;;
59938;SDS011;45801;51.810;19.444;2024-03-06T13:32:46;36.00;;;20.40;;
59938;SDS011;45801;51.810;19.444;2024-03-06T13:35:12;31.70;;;20.70;;
59938;SDS011;45801;51.810;19.444;2024-03-06T13:37:45;32.00;;;21.50;;
59938;SDS011;45801;51.810;19.444;2024-03-06T13:40:11;35.80;;;22.80;;
59938;SDS011;45801;51.810;19.444;2024-03-06T13:42:42;31.10;;;21.10;;
59938;SDS011;45801;51.810;19.444;2024-03-06T13:45:08;35.20;;;20.40;;
59938;SDS011;45801;51.810;19.444;2024-03-06T13:47:38;34.00;;;21.20;;
59938;SDS011;45801;51.810;19.444;2024-03-06T13:50:08;33.80;;;21.90;;
59938;SDS011;45801;51.810;19.444;2024-03-06T13:52:34;33.40;;;20.20;;
59938;SDS011;45801;51.810;19.444;2024-03-06T13:55:00;30.10;;;19.80;;
59938;SDS011;45801;51.810;19.444;2024-03-06T13:57:28;31.70;;;19.70;;
59938;SDS011;45801;51.810;19.444;2024-03-06T13:59:54;28.50;;;18.10;;
59938;SDS011;45801;51.810;19.444;2024-03-06T14:02:20;28.10;;;19.00;;
59938;SDS011;45801;51.810;19.444;2024-03-06T14:04:46;26.90;;;18.80;;
59938;SDS011;45801;51.810;19.444;2024-03-06T14:07:12;29.10;;;19.90;;
59938;SDS011;45801;51.810;19.444;2024-03-06T14:19:30;28.20;;;18.80;;
59938;SDS011;45801;51.810;19.444;2024-03-06T14:21:56;31.00;;;20.90;;
59938;SDS011;45801;51.810;19.444;2024-03-06T14:24:22;28.20;;;22.00;;
59938;SDS011;45801;51.810;19.444;2024-03-06T14:26:47;30.00;;;22.10;;
59938;SDS011;45801;51.810;19.444;2024-03-06T14:29:14;28.20;;;20.20;;
59938;SDS011;45801;51.810;19.444;2024-03-06T14:31:40;23.00;;;16.70;;
59938;SDS011;45801;51.810;19.444;2024-03-06T14:34:06;27.80;;;18.60;;
59938;SDS011;45801;51.810;19.444;2024-03-06T14:36:32;25.80;;;17.30;;
59938;SDS011;45801;51.810;19.444;2024-03-06T14:38:59;25.80;;;15.60;;
59938;SDS011;45801;51.810;19.444;2024-03-06T14:41:24;25.20;;;16.40;;